createdAt,value
2023-05-10T05:22:56.528Z,25.00
2023-05-10T05:23:56.436Z,25.00
2023-05-10T05:24:56.296Z,25.00
2023-05-10T05:25:56.755Z,25.00
2023-05-10T05:26:55.988Z,25.00
2023-05-10T05:27:56.264Z,25.00
2023-05-10T05:28:55.696Z,25.00
2023-05-10T05:29:55.448Z,25.00
2023-05-10T05:30:55.246Z,25.00
2023-05-10T05:31:55.642Z,25.00
2023-05-10T05:32:54.879Z,0.00
2023-05-10T05:33:54.640Z,0.00
2023-05-10T05:34:54.428Z,0.00
2023-05-10T05:35:54.220Z,0.00
2023-05-10T05:36:53.989Z,0.00
2023-05-10T05:37:53.769Z,0.00
2023-05-10T05:38:53.545Z,0.00
2023-05-10T05:39:54.178Z,17.27
2023-05-10T05:40:53.099Z,24.85
2023-05-10T05:41:52.883Z,25.00
2023-05-10T05:42:52.688Z,26.11
2023-05-10T05:43:52.424Z,25.00
2023-05-10T05:44:52.207Z,24.04
2023-05-10T05:45:52.036Z,25.00
2023-05-10T05:46:51.777Z,25.00
2023-05-10T05:47:51.596Z,25.14
2023-05-10T05:48:52.180Z,25.00
2023-05-10T05:49:51.126Z,26.39
2023-05-10T05:50:50.933Z,25.94
2023-05-10T05:51:50.714Z,26.10
2023-05-10T05:52:50.507Z,23.52
2023-05-10T05:53:50.451Z,14.83
2023-05-10T05:54:50.053Z,8.63
2023-05-10T05:55:49.836Z,0.00
2023-05-10T05:56:49.677Z,25.00
2023-05-10T05:57:49.368Z,25.36
2023-05-10T05:58:49.137Z,25.59
2023-05-10T05:59:48.917Z,27.56
2023-05-10T06:00:48.683Z,26.84
2023-05-10T06:01:48.475Z,25.25
2023-05-10T06:02:48.361Z,25.00
2023-05-10T06:03:48.751Z,25.00
2023-05-10T06:04:47.847Z,25.50
2023-05-10T06:05:47.537Z,26.23
2023-05-10T06:06:47.346Z,26.80
2023-05-10T06:07:47.092Z,25.00
2023-05-10T06:08:46.860Z,27.24
2023-05-10T06:09:46.632Z,25.18
2023-05-10T06:10:46.423Z,25.00
2023-05-10T06:11:46.184Z,26.29
2023-05-10T06:12:45.978Z,26.52
2023-05-10T06:13:45.746Z,27.53
2023-05-10T06:14:45.521Z,25.36
2023-05-10T06:15:45.302Z,27.67
2023-05-10T06:16:45.098Z,26.17
2023-05-10T06:17:44.863Z,28.52
2023-05-10T06:18:44.619Z,34.42
2023-05-10T06:19:44.377Z,32.04
2023-05-10T06:20:44.201Z,34.46
2023-05-10T06:21:43.925Z,29.08
2023-05-10T06:22:43.733Z,22.63
2023-05-10T06:23:43.503Z,24.68
2023-05-10T06:24:43.280Z,32.30
2023-05-10T06:25:43.057Z,58.55
2023-05-10T06:26:42.865Z,62.65
2023-05-10T06:27:42.612Z,67.43
2023-05-10T06:28:42.407Z,65.91
2023-05-10T06:29:42.186Z,62.67
2023-05-10T06:30:41.957Z,61.39
2023-05-10T06:31:41.757Z,65.25
2023-05-10T06:32:41.595Z,55.73
2023-05-10T06:33:41.307Z,16.81
2023-05-10T06:34:41.107Z,20.57
2023-05-10T06:35:40.906Z,22.22
2023-05-10T06:36:40.725Z,23.19
2023-05-10T06:37:40.536Z,19.54
2023-05-10T06:38:40.365Z,4.56
2023-05-10T06:39:40.195Z,0.00
2023-05-10T06:40:40.054Z,0.00
2023-05-10T06:41:39.920Z,0.00
2023-05-10T06:42:39.748Z,0.00
2023-05-10T06:43:39.584Z,0.00
2023-05-10T06:44:39.391Z,6.59
2023-05-10T06:45:39.219Z,25.20
2023-05-10T06:46:39.073Z,24.98
2023-05-10T06:47:39.518Z,21.80
2023-05-10T06:48:38.669Z,26.28
2023-05-10T06:49:38.502Z,25.00
2023-05-10T06:50:38.293Z,25.19
2023-05-10T06:51:38.105Z,25.08
2023-05-10T06:52:37.905Z,25.17
2023-05-10T06:53:37.719Z,26.06
2023-05-10T06:54:37.541Z,26.67
2023-05-10T06:55:37.357Z,25.88
2023-05-10T06:56:37.177Z,23.84
2023-05-10T06:57:36.994Z,29.01
2023-05-10T06:58:36.810Z,29.18
2023-05-10T06:59:36.748Z,25.42
2023-05-10T07:00:36.441Z,27.75
2023-05-10T07:01:36.299Z,27.78
2023-05-10T07:02:36.097Z,25.00
2023-05-10T07:03:35.851Z,25.00
2023-05-10T07:04:35.739Z,27.62
2023-05-10T07:05:35.630Z,26.31
2023-05-10T07:06:35.267Z,32.67
2023-05-10T07:07:35.040Z,25.00
2023-05-10T07:08:34.830Z,30.29
2023-05-10T07:09:34.679Z,27.51
2023-05-10T07:10:34.521Z,36.49
2023-05-10T07:11:34.375Z,29.69
2023-05-10T07:12:34.281Z,28.03
2023-05-10T07:13:34.126Z,25.38
2023-05-10T07:14:34.081Z,25.96
2023-05-10T07:15:33.735Z,28.77
2023-05-10T07:16:33.632Z,30.09
2023-05-10T07:17:33.420Z,38.65
2023-05-10T07:18:33.210Z,48.04
2023-05-10T07:19:33.011Z,68.45
2023-05-10T07:20:32.828Z,65.45
2023-05-10T07:21:32.670Z,57.33
2023-05-10T07:22:33.423Z,57.21
2023-05-10T07:23:32.238Z,52.15
2023-05-10T07:24:32.062Z,27.92
2023-05-10T07:25:31.863Z,9.81
2023-05-10T07:26:31.670Z,1.49
2023-05-10T07:27:31.473Z,30.08
2023-05-10T07:28:31.262Z,42.84
2023-05-10T07:29:31.063Z,53.81
2023-05-10T07:30:30.874Z,57.47
2023-05-10T07:31:30.724Z,59.04
2023-05-10T07:32:30.574Z,52.06
2023-05-10T07:33:30.252Z,47.69
2023-05-10T07:34:30.077Z,42.71
2023-05-10T07:35:29.860Z,45.72
2023-05-10T07:36:29.676Z,45.10
2023-05-10T07:37:29.492Z,42.31
2023-05-10T07:38:29.345Z,35.67
2023-05-10T07:39:29.205Z,55.90
2023-05-10T07:40:29.034Z,53.17
2023-05-10T07:41:28.880Z,56.47
2023-05-10T07:42:28.743Z,63.20
2023-05-10T07:43:28.601Z,73.60
2023-05-10T07:44:28.457Z,88.27
2023-05-10T07:45:28.357Z,97.13
2023-05-10T07:46:28.313Z,106.83
2023-05-10T07:47:28.045Z,110.22
2023-05-10T07:48:27.852Z,113.33
2023-05-10T07:49:27.708Z,126.33
2023-05-10T07:50:27.588Z,127.38
2023-05-10T07:51:27.422Z,116.95
2023-05-10T07:52:27.315Z,96.19
2023-05-10T07:53:27.134Z,72.79
2023-05-10T07:54:26.984Z,44.95
2023-05-10T07:55:26.830Z,25.61
2023-05-10T07:56:26.675Z,26.85
2023-05-10T07:57:26.534Z,25.00
2023-05-10T07:58:26.398Z,24.61
2023-05-10T07:59:26.237Z,25.48
2023-05-10T08:00:26.091Z,25.00
2023-05-10T08:01:25.929Z,40.58
2023-05-10T08:02:25.859Z,36.61
2023-05-10T08:03:25.709Z,32.01
2023-05-10T08:04:25.537Z,26.79
2023-05-10T08:05:25.330Z,25.07
2023-05-10T08:06:25.186Z,32.14
2023-05-10T08:07:25.040Z,37.00
2023-05-10T08:08:24.888Z,50.66
2023-05-10T08:09:24.958Z,65.16
2023-05-10T08:10:24.590Z,87.39
2023-05-10T08:11:24.430Z,103.77
2023-05-10T08:12:25.862Z,102.61
2023-05-10T08:13:24.854Z,134.19
2023-05-10T08:14:24.832Z,159.18
2023-05-10T08:15:23.793Z,186.30
2023-05-10T08:16:23.805Z,188.11
2023-05-10T08:17:24.799Z,169.37
2023-05-10T08:18:23.372Z,146.70
2023-05-10T08:19:23.137Z,123.72
2023-05-10T08:20:22.979Z,97.88
2023-05-10T08:21:22.795Z,83.93
2023-05-10T08:22:23.295Z,67.78
2023-05-10T08:23:22.472Z,49.15
2023-05-10T08:24:22.466Z,28.36
2023-05-10T08:25:22.145Z,25.00
2023-05-10T08:26:21.998Z,22.71
2023-05-10T08:27:21.809Z,25.03
2023-05-10T08:28:21.632Z,23.66
2023-05-10T08:29:22.426Z,9.85
2023-05-10T08:30:21.255Z,0.00
2023-05-10T08:31:21.061Z,0.00
2023-05-10T08:32:20.859Z,0.00
2023-05-10T08:33:20.657Z,0.00
2023-05-10T08:34:20.468Z,0.00
2023-05-10T08:35:20.282Z,17.64
2023-05-10T08:36:20.074Z,33.55
2023-05-10T08:37:20.864Z,43.09
2023-05-10T08:38:19.695Z,53.60
2023-05-10T08:39:29.406Z,74.26
2023-05-10T08:40:20.332Z,75.38
2023-05-10T08:41:19.123Z,82.89
2023-05-10T08:42:19.163Z,102.99
2023-05-10T08:43:18.746Z,148.87
2023-05-10T08:44:18.570Z,217.18
2023-05-10T08:45:18.572Z,235.85
2023-05-10T08:46:18.208Z,235.14
2023-05-10T08:47:18.068Z,249.32
2023-05-10T08:48:17.808Z,248.89
2023-05-10T08:49:17.623Z,250.00
2023-05-10T08:50:17.465Z,250.00
2023-05-10T08:51:17.285Z,248.05
2023-05-10T08:52:17.090Z,238.25
2023-05-10T08:53:16.954Z,229.94
2023-05-10T08:54:16.753Z,225.56
2023-05-10T08:55:16.689Z,219.57
2023-05-10T08:56:16.409Z,227.56
2023-05-10T08:57:16.270Z,242.83
2023-05-10T08:58:16.119Z,244.80
2023-05-10T08:59:15.985Z,246.65
2023-05-10T09:00:15.900Z,243.50
2023-05-10T09:01:15.713Z,242.39
2023-05-10T09:02:17.375Z,236.03
2023-05-10T09:03:15.323Z,220.19
2023-05-10T09:04:15.209Z,189.30
2023-05-10T09:05:15.110Z,172.69
2023-05-10T09:06:14.725Z,169.98
2023-05-10T09:07:14.523Z,168.31
2023-05-10T09:08:14.326Z,169.90
2023-05-10T09:09:14.109Z,175.85
2023-05-10T09:10:13.916Z,170.62
2023-05-10T09:11:13.726Z,169.51
2023-05-10T09:12:13.477Z,169.92
2023-05-10T09:13:13.262Z,172.67
2023-05-10T09:14:13.056Z,189.62
2023-05-10T09:15:12.852Z,215.65
2023-05-10T09:16:21.190Z,246.73
2023-05-10T09:17:13.478Z,247.84
2023-05-10T09:18:12.265Z,252.00
2023-05-10T09:19:12.983Z,263.57
2023-05-10T09:20:11.809Z,286.69
2023-05-10T09:21:11.635Z,315.04
2023-05-10T09:22:11.377Z,269.15
2023-05-10T09:23:11.178Z,240.05
2023-05-10T09:24:10.993Z,248.06
2023-05-10T09:25:10.796Z,250.00
2023-05-10T09:26:11.373Z,247.30
2023-05-10T09:27:10.464Z,251.20
2023-05-10T09:28:10.315Z,245.98
2023-05-10T09:29:14.200Z,249.23
2023-05-10T09:30:09.982Z,249.40
2023-05-10T09:31:09.875Z,250.04
2023-05-10T09:32:10.612Z,253.23
2023-05-10T09:33:09.561Z,265.22
2023-05-10T09:34:09.149Z,276.15
2023-05-10T09:35:09.105Z,250.24
2023-05-10T09:36:08.697Z,250.74
2023-05-10T09:37:08.462Z,257.18
2023-05-10T09:38:08.250Z,271.65
2023-05-10T09:39:08.066Z,290.56
2023-05-10T09:40:10.408Z,313.35
2023-05-10T09:41:07.806Z,297.14
2023-05-10T09:42:07.774Z,278.56
2023-05-10T09:43:08.421Z,265.98
2023-05-10T09:44:08.338Z,252.75
2023-05-10T09:46:27.751Z,25.00
2023-05-10T09:47:26.038Z,25.00
2023-05-10T09:48:26.016Z,25.00
2023-05-10T09:49:26.024Z,25.00
2023-05-10T09:50:32.138Z,25.00
2023-05-10T09:52:40.627Z,25.00
2023-05-10T09:53:26.268Z,25.00
2023-05-10T09:54:26.321Z,25.00
2023-05-10T09:55:26.395Z,25.00
2023-05-10T09:56:26.405Z,25.00
2023-05-10T09:57:26.407Z,25.00
2023-05-10T09:58:26.416Z,25.00
2023-05-10T09:59:26.435Z,25.00
2023-05-10T10:00:26.457Z,25.00
2023-05-10T10:01:27.251Z,36.95
2023-05-10T10:02:26.484Z,45.86
2023-05-10T10:03:27.756Z,53.40
2023-05-10T10:04:26.597Z,59.21
2023-05-10T10:05:26.566Z,64.97
2023-05-10T10:06:30.440Z,70.86
2023-05-10T10:07:26.795Z,71.03
2023-05-10T10:08:26.610Z,71.39
2023-05-10T10:09:26.632Z,68.55
2023-05-10T10:10:26.633Z,69.24
2023-05-10T10:11:26.660Z,74.21
2023-05-10T10:12:29.228Z,83.54
2023-05-10T10:13:26.854Z,91.26
2023-05-10T10:14:26.879Z,83.75
2023-05-10T10:15:27.064Z,85.63
2023-05-10T10:16:27.117Z,86.67
2023-05-10T10:17:27.061Z,92.90
2023-05-10T10:18:27.105Z,95.08
2023-05-10T10:19:27.133Z,98.61
2023-05-10T10:20:27.285Z,95.19
2023-05-10T10:21:27.209Z,109.98
2023-05-10T10:22:27.238Z,122.98
2023-05-10T10:23:27.266Z,132.87
2023-05-10T10:24:27.299Z,128.93
2023-05-10T10:25:27.329Z,130.13
2023-05-10T10:26:27.367Z,132.22
2023-05-10T10:27:28.188Z,138.57
2023-05-10T10:28:28.271Z,145.39
2023-05-10T10:29:27.446Z,146.35
2023-05-10T10:30:27.487Z,140.31
2023-05-10T10:31:27.562Z,142.21
2023-05-10T10:32:27.554Z,141.89
2023-05-10T10:33:28.777Z,144.15
2023-05-10T10:34:27.570Z,138.98
2023-05-10T10:35:27.612Z,144.29
2023-05-10T10:36:28.336Z,144.09
2023-05-10T10:37:27.668Z,148.90
2023-05-10T10:38:27.715Z,151.47
2023-05-10T10:39:27.698Z,156.32
2023-05-10T10:40:27.738Z,154.34
2023-05-10T10:41:27.790Z,155.01
2023-05-10T10:42:27.759Z,157.72
2023-05-10T10:43:27.806Z,159.47
2023-05-10T10:44:27.844Z,157.54
2023-05-10T10:45:27.850Z,159.79
2023-05-10T10:46:27.900Z,161.84
2023-05-10T10:47:27.926Z,161.40
2023-05-10T10:48:27.909Z,162.62
2023-05-10T10:49:27.968Z,163.00
2023-05-10T10:50:27.970Z,166.40
2023-05-10T10:51:27.988Z,175.94
2023-05-10T10:52:28.005Z,179.91
2023-05-10T10:53:28.077Z,182.10
2023-05-10T10:54:28.089Z,184.03
2023-05-10T10:55:28.072Z,183.29
2023-05-10T10:56:28.096Z,179.26
2023-05-10T10:57:28.261Z,180.42
2023-05-10T10:58:28.131Z,179.81
2023-05-10T10:59:28.153Z,181.21
2023-05-10T11:00:28.224Z,177.35
2023-05-10T11:01:28.294Z,173.95
2023-05-10T11:02:31.213Z,174.14
2023-05-10T11:03:28.345Z,177.05
2023-05-10T11:04:28.399Z,174.80
2023-05-10T11:05:28.349Z,174.19
2023-05-10T11:06:28.352Z,172.20
2023-05-10T11:07:28.360Z,176.52
2023-05-10T11:08:28.353Z,179.29
2023-05-10T11:09:28.371Z,176.48
2023-05-10T11:10:28.359Z,175.06
2023-05-10T11:11:28.380Z,176.62
2023-05-10T11:12:28.383Z,174.89
2023-05-10T11:13:28.377Z,157.57
2023-05-10T11:14:28.363Z,144.79
2023-05-10T11:15:28.362Z,134.50
2023-05-10T11:16:28.469Z,123.01
2023-05-10T11:17:28.408Z,109.07
2023-05-10T11:18:28.483Z,98.49
2023-05-10T11:19:28.369Z,93.24
2023-05-10T11:20:28.371Z,86.65
2023-05-10T11:21:28.376Z,95.54
2023-05-10T11:22:28.369Z,115.96
2023-05-10T11:23:28.365Z,120.41
2023-05-10T11:24:28.374Z,103.13
2023-05-10T11:25:28.365Z,92.73
2023-05-10T11:26:28.360Z,89.29
2023-05-10T11:27:28.395Z,96.07
2023-05-10T11:28:28.352Z,76.38
2023-05-10T11:29:28.363Z,59.65
2023-05-10T11:30:28.333Z,56.41
2023-05-10T11:31:28.358Z,34.62
2023-05-10T11:32:28.342Z,18.21
2023-05-10T11:33:29.238Z,0.00
2023-05-10T11:34:28.343Z,0.00
2023-05-10T11:35:28.328Z,0.00
2023-05-10T11:36:28.362Z,10.54
2023-05-10T11:37:28.351Z,25.06
2023-05-10T11:38:28.351Z,35.98
2023-05-10T11:39:28.351Z,27.72
2023-05-10T11:40:28.368Z,42.18
2023-05-10T11:41:28.380Z,35.15
2023-05-10T11:42:28.380Z,50.66
2023-05-10T11:43:28.399Z,27.23
2023-05-10T11:44:28.402Z,24.29
2023-05-10T11:45:28.391Z,25.00
2023-05-10T11:46:28.523Z,25.00
2023-05-10T11:47:28.437Z,24.90
2023-05-10T11:48:28.397Z,25.96
2023-05-10T11:49:28.454Z,27.04
2023-05-10T11:50:28.417Z,26.08
2023-05-10T11:51:28.523Z,28.36
2023-05-10T11:52:28.573Z,39.07
2023-05-10T11:53:28.422Z,46.62
2023-05-10T11:54:28.531Z,67.40
2023-05-10T11:55:28.423Z,108.42
2023-05-10T11:56:28.470Z,121.22
2023-05-10T11:57:28.429Z,99.42
2023-05-10T11:58:28.405Z,122.09
2023-05-10T11:59:28.479Z,124.04
2023-05-10T12:00:28.416Z,141.35
2023-05-10T12:01:28.430Z,153.55
2023-05-10T12:02:28.510Z,151.65
2023-05-10T12:03:28.567Z,165.17
2023-05-10T12:04:28.558Z,182.95
2023-05-10T12:05:28.459Z,195.28
2023-05-10T12:06:28.462Z,207.19
2023-05-10T12:07:28.470Z,215.81
2023-05-10T12:08:33.254Z,225.01
2023-05-10T12:09:42.733Z,225.41
2023-05-10T12:10:29.486Z,225.67
2023-05-10T12:11:28.471Z,228.34
2023-05-10T12:12:28.434Z,233.17
2023-05-10T12:13:28.440Z,240.23
2023-05-10T12:14:28.424Z,253.49
2023-05-10T12:15:28.437Z,248.52
2023-05-10T12:16:28.533Z,247.46
2023-05-10T12:17:28.458Z,248.33
2023-05-10T12:18:28.460Z,248.40
2023-05-10T12:19:28.436Z,250.11
2023-05-10T12:20:28.451Z,247.15
2023-05-10T12:21:29.280Z,247.18
2023-05-10T12:22:28.443Z,250.00
2023-05-10T12:23:28.446Z,248.20
2023-05-10T12:24:28.498Z,250.00
2023-05-10T12:25:28.464Z,249.20
2023-05-10T12:26:28.438Z,247.10
2023-05-10T12:27:28.439Z,246.46
2023-05-10T12:28:28.435Z,248.84
2023-05-10T12:29:28.424Z,245.92
2023-05-10T12:30:28.412Z,246.58
2023-05-10T12:31:28.455Z,245.64
2023-05-10T12:32:28.487Z,245.35
2023-05-10T12:33:28.406Z,245.13
2023-05-10T12:34:28.423Z,244.65
2023-05-10T12:35:28.400Z,243.94
2023-05-10T12:36:28.400Z,240.75
2023-05-10T12:37:28.389Z,241.29
2023-05-10T12:38:28.391Z,239.48
2023-05-10T12:39:28.422Z,242.19
2023-05-10T12:40:28.396Z,250.00
2023-05-10T12:41:28.391Z,248.08
2023-05-10T12:42:28.411Z,247.91
2023-05-10T12:43:28.379Z,249.60
2023-05-10T12:44:28.383Z,249.85
2023-05-10T12:45:28.391Z,249.45
2023-05-10T12:46:28.426Z,249.64
2023-05-10T12:47:28.395Z,249.10
2023-05-10T12:48:28.406Z,249.48
2023-05-10T12:49:28.437Z,248.68
2023-05-10T12:50:28.429Z,248.18
2023-05-10T12:51:28.433Z,248.69
2023-05-10T12:52:28.447Z,249.22
2023-05-10T12:53:28.433Z,245.09
2023-05-10T12:54:28.448Z,244.32
2023-05-10T12:55:28.456Z,241.04
2023-05-10T12:56:28.464Z,241.02
2023-05-10T12:57:28.479Z,243.81
2023-05-10T12:58:35.482Z,244.38
2023-05-10T12:59:29.488Z,244.43
2023-05-10T13:00:28.488Z,244.08
2023-05-10T13:01:28.516Z,243.99
2023-05-10T13:02:28.505Z,244.93
2023-05-10T13:03:28.498Z,249.84
2023-05-10T13:04:28.509Z,246.43
2023-05-10T13:05:28.481Z,241.23
2023-05-10T13:06:28.488Z,233.98
2023-05-10T13:07:28.491Z,231.80
2023-05-10T13:08:28.502Z,226.23
2023-05-10T13:09:28.489Z,225.66
2023-05-10T13:10:28.489Z,223.54
2023-05-10T13:11:28.494Z,219.05
2023-05-10T13:12:28.485Z,220.68
2023-05-10T13:13:28.490Z,222.06
2023-05-10T13:14:28.484Z,223.94
2023-05-10T13:15:28.495Z,224.30
2023-05-10T13:16:28.539Z,222.14
2023-05-10T13:17:28.517Z,220.56
2023-05-10T13:18:28.552Z,220.45
2023-05-10T13:19:28.497Z,216.70
2023-05-10T13:20:28.499Z,217.25
2023-05-10T13:21:28.506Z,215.50
2023-05-10T13:22:39.289Z,216.16
2023-05-10T13:23:29.493Z,216.20
2023-05-10T13:24:28.482Z,213.10
2023-05-10T13:25:28.475Z,212.41
2023-05-10T13:26:28.492Z,210.39
2023-05-10T13:27:28.478Z,208.85
2023-05-10T13:28:28.485Z,207.81
2023-05-10T13:29:28.478Z,205.86
2023-05-10T13:30:28.476Z,205.19
2023-05-10T13:31:28.522Z,206.15
2023-05-10T13:32:28.503Z,206.62
2023-05-10T13:33:28.477Z,205.82
2023-05-10T13:34:28.476Z,204.32
2023-05-10T13:35:28.485Z,200.30
2023-05-10T13:36:28.484Z,195.53
2023-05-10T13:37:28.479Z,199.78
2023-05-10T13:38:28.477Z,201.76
2023-05-10T13:39:28.481Z,202.71
2023-05-10T13:40:28.484Z,204.92
2023-05-10T13:41:28.500Z,199.71
2023-05-10T13:42:28.492Z,197.04
2023-05-10T13:43:28.487Z,197.70
2023-05-10T13:44:28.492Z,198.91
2023-05-10T13:45:28.482Z,198.78
2023-05-10T13:46:28.578Z,200.39
2023-05-10T13:47:28.503Z,201.64
2023-05-10T13:48:28.484Z,203.92
2023-05-10T13:49:28.483Z,202.24
2023-05-10T13:50:28.481Z,205.09
2023-05-10T13:51:28.482Z,202.59
2023-05-10T13:52:28.480Z,202.48
2023-05-10T13:53:29.016Z,203.40
2023-05-10T13:54:28.475Z,201.13
2023-05-10T13:55:28.486Z,202.28
2023-05-10T13:56:28.525Z,200.70
2023-05-10T13:57:28.507Z,203.33
2023-05-10T13:58:28.512Z,202.73
2023-05-10T13:59:28.521Z,202.96
2023-05-10T14:00:28.536Z,208.28
2023-05-10T14:01:28.588Z,206.67
2023-05-10T14:02:28.673Z,205.96
2023-05-10T14:03:28.668Z,206.62
2023-05-10T14:04:28.581Z,208.79
2023-05-10T14:05:28.862Z,208.96
2023-05-10T14:06:28.573Z,206.16
2023-05-10T14:07:28.588Z,205.49
2023-05-10T14:08:28.610Z,208.42
2023-05-10T14:09:28.604Z,206.04
2023-05-10T14:10:28.624Z,207.52
2023-05-10T14:11:28.645Z,208.11
2023-05-10T14:12:28.670Z,207.79
2023-05-10T14:13:28.698Z,209.40
2023-05-10T14:14:28.696Z,209.52
2023-05-10T14:15:28.733Z,202.55
2023-05-10T14:16:28.775Z,192.46
2023-05-10T14:17:28.771Z,179.87
2023-05-10T14:18:28.782Z,172.46
2023-05-10T14:19:28.783Z,162.42
2023-05-10T14:20:28.800Z,158.36
2023-05-10T14:21:28.810Z,144.89
2023-05-10T14:22:28.805Z,139.19
2023-05-10T14:23:28.826Z,123.35
2023-05-10T14:24:28.843Z,117.54
2023-05-10T14:25:28.863Z,113.18
2023-05-10T14:26:28.902Z,106.21
2023-05-10T14:27:28.920Z,100.23
2023-05-10T14:28:28.991Z,94.30
2023-05-10T14:29:28.991Z,85.45
2023-05-10T14:30:29.010Z,82.60
2023-05-10T14:31:29.090Z,74.39
2023-05-10T14:32:29.184Z,67.22
2023-05-10T14:33:29.147Z,58.79
2023-05-10T14:34:29.152Z,49.05
2023-05-10T14:35:29.182Z,39.39
2023-05-10T14:36:29.219Z,35.84
2023-05-10T14:37:29.258Z,41.99
2023-05-10T14:38:29.298Z,43.73
2023-05-10T14:39:29.331Z,46.62
2023-05-10T14:40:29.363Z,51.65
2023-05-10T14:41:29.399Z,52.50
2023-05-10T14:42:29.492Z,53.60
2023-05-10T14:43:29.455Z,58.36
2023-05-10T14:44:29.471Z,58.69
2023-05-10T14:45:29.515Z,58.07
2023-05-10T14:46:29.619Z,60.46
2023-05-10T14:47:29.602Z,56.30
2023-05-10T14:48:29.620Z,54.40
2023-05-10T14:49:29.660Z,58.95
2023-05-10T14:51:29.708Z,58.52
2023-05-10T14:52:29.947Z,61.83
2023-05-10T14:53:29.717Z,65.06
2023-05-10T14:54:29.696Z,60.73
2023-05-10T14:55:29.704Z,61.22
2023-05-10T14:56:29.715Z,64.32
2023-05-10T14:57:29.721Z,68.48
2023-05-10T14:58:29.703Z,68.48
2023-05-10T14:59:29.716Z,79.59
2023-05-10T15:00:29.706Z,87.20
2023-05-10T15:01:29.746Z,86.95
2023-05-10T15:02:29.807Z,83.84
2023-05-10T15:03:30.175Z,80.55
2023-05-10T15:04:29.782Z,70.46
2023-05-10T15:05:29.713Z,64.62
2023-05-10T15:06:29.703Z,52.68
2023-05-10T15:07:29.795Z,43.78
2023-05-10T15:08:29.718Z,36.14
2023-05-10T15:09:29.720Z,30.77
2023-05-10T15:10:29.698Z,26.82
2023-05-10T15:11:29.697Z,31.75
2023-05-10T15:12:29.702Z,25.00
2023-05-10T15:13:29.711Z,24.84
2023-05-10T15:14:29.709Z,25.00
2023-05-10T15:15:29.716Z,28.25
2023-05-10T15:16:29.777Z,25.99
2023-05-10T15:17:29.768Z,25.59
2023-05-10T15:18:29.785Z,29.81
2023-05-10T15:19:29.750Z,30.61
2023-05-10T15:20:29.741Z,32.52
2023-05-10T15:21:29.748Z,32.65
2023-05-10T15:22:29.743Z,36.97
2023-05-10T15:23:29.762Z,64.78
2023-05-10T15:24:29.762Z,73.44
2023-05-10T15:25:29.818Z,77.54
2023-05-10T15:26:29.758Z,74.19
2023-05-10T15:27:29.762Z,76.06
2023-05-10T15:28:29.760Z,78.44
2023-05-10T15:29:29.761Z,81.64
2023-05-10T15:30:29.759Z,80.24
2023-05-10T15:31:29.806Z,84.23
2023-05-10T15:32:29.758Z,110.94
2023-05-10T15:33:29.740Z,142.64
2023-05-10T15:34:29.792Z,159.81
2023-05-10T15:35:29.728Z,170.48
2023-05-10T15:36:29.743Z,178.71
2023-05-10T15:37:29.722Z,185.74
2023-05-10T15:38:29.726Z,187.55
2023-05-10T15:39:29.729Z,191.26
2023-05-10T15:40:29.722Z,192.17
2023-05-10T15:41:29.779Z,193.83
2023-05-10T15:42:29.722Z,196.86
2023-05-10T15:43:29.702Z,197.68
2023-05-10T15:44:29.709Z,199.63
2023-05-10T15:45:29.726Z,203.19
2023-05-10T15:46:29.739Z,202.16
2023-05-10T15:47:29.789Z,202.53
2023-05-10T15:48:29.743Z,200.67
2023-05-10T15:49:29.746Z,199.81
2023-05-10T15:50:29.764Z,202.55
2023-05-10T15:51:29.778Z,202.71
2023-05-10T15:52:29.832Z,206.37
2023-05-10T15:53:29.817Z,203.81
2023-05-10T15:54:29.832Z,206.32
2023-05-10T15:55:29.856Z,203.85
2023-05-10T15:56:29.862Z,204.10
2023-05-10T15:57:29.881Z,205.55
2023-05-10T15:58:29.918Z,204.63
2023-05-10T15:59:29.905Z,207.42
2023-05-10T16:00:29.920Z,204.81
2023-05-10T16:01:29.980Z,205.66
2023-05-10T16:02:30.025Z,203.96
2023-05-10T16:03:29.978Z,202.87
2023-05-10T16:04:29.966Z,203.96
2023-05-10T16:05:29.997Z,205.87
2023-05-10T16:06:29.996Z,207.14
2023-05-10T16:07:30.364Z,205.36
2023-05-10T16:08:30.031Z,204.13
2023-05-10T16:09:30.036Z,207.09
2023-05-10T16:10:30.062Z,203.67
2023-05-10T16:11:30.084Z,203.68
2023-05-10T16:12:30.090Z,206.62
2023-05-10T16:13:30.117Z,206.11
2023-05-10T16:14:30.137Z,208.30
2023-05-10T16:15:30.139Z,205.64
2023-05-10T16:16:30.300Z,204.29
2023-05-10T16:17:30.216Z,202.85
2023-05-10T16:18:30.315Z,203.98
2023-05-10T16:19:30.231Z,204.96
2023-05-10T16:20:30.223Z,203.66
2023-05-10T16:21:30.231Z,203.20
2023-05-10T16:22:30.242Z,205.33
2023-05-10T16:23:30.259Z,206.60
2023-05-10T16:24:30.272Z,203.85
2023-05-10T16:25:30.300Z,205.44
2023-05-10T16:26:30.301Z,204.14
2023-05-10T16:27:30.477Z,204.34
2023-05-10T16:28:30.333Z,208.33
2023-05-10T16:29:30.361Z,206.62
2023-05-10T16:30:30.411Z,206.18
2023-05-10T16:31:30.426Z,204.47
2023-05-10T16:32:30.454Z,204.13
2023-05-10T16:33:30.436Z,204.50
2023-05-10T16:34:30.453Z,206.18
2023-05-10T16:35:30.478Z,205.87
2023-05-10T16:36:30.485Z,206.69
2023-05-10T16:37:30.503Z,207.07
2023-05-10T16:38:30.507Z,205.72
2023-05-10T16:39:30.521Z,207.00
2023-05-10T16:40:30.540Z,204.46
2023-05-10T16:41:30.555Z,203.93
2023-05-10T16:42:30.566Z,206.46
2023-05-10T16:43:30.577Z,203.38
2023-05-10T16:44:30.606Z,206.53
2023-05-10T16:45:30.612Z,207.47
2023-05-10T16:46:30.671Z,205.76
2023-05-10T16:47:30.698Z,207.81
2023-05-10T16:48:30.668Z,206.17
2023-05-10T16:49:30.678Z,207.38
2023-05-10T16:50:30.699Z,208.03
2023-05-10T16:51:30.740Z,206.08
2023-05-10T16:52:30.745Z,205.45
2023-05-10T16:53:30.754Z,208.19
2023-05-10T16:54:30.768Z,207.11
2023-05-10T16:55:30.797Z,206.68
2023-05-10T16:56:30.802Z,206.36
2023-05-10T16:57:30.819Z,206.27
2023-05-10T16:58:30.838Z,205.79
2023-05-10T16:59:30.850Z,207.55
2023-05-10T17:00:30.878Z,206.53
2023-05-10T17:01:30.948Z,207.21
2023-05-10T17:02:31.030Z,207.26
2023-05-10T17:03:31.175Z,206.60
2023-05-10T17:04:30.936Z,209.42
2023-05-10T17:05:30.968Z,205.87
2023-05-10T17:06:30.981Z,204.92
2023-05-10T17:07:31.011Z,206.40
2023-05-10T17:08:31.001Z,207.65
2023-05-10T17:09:31.017Z,205.00
2023-05-10T17:10:31.052Z,208.99
2023-05-10T17:11:31.061Z,204.42
2023-05-10T17:12:31.085Z,203.93
2023-05-10T17:13:31.092Z,205.85
2023-05-10T17:14:31.105Z,203.12
2023-05-10T17:15:31.155Z,204.61
2023-05-10T17:16:31.167Z,204.44
2023-05-10T17:17:31.202Z,202.17
2023-05-10T17:18:31.232Z,204.38
2023-05-10T17:19:31.199Z,203.59
2023-05-10T17:20:31.230Z,203.47
2023-05-10T17:21:31.245Z,203.69
2023-05-10T17:22:31.259Z,203.32
2023-05-10T17:23:31.295Z,203.61
2023-05-10T17:24:31.310Z,204.38
2023-05-10T17:25:31.313Z,203.35
2023-05-10T17:26:31.335Z,202.23
2023-05-10T17:27:31.361Z,201.26
2023-05-10T17:28:31.392Z,203.29
2023-05-10T17:29:31.393Z,204.03
2023-05-10T17:30:31.414Z,202.17
2023-05-10T17:31:31.478Z,203.36
2023-05-10T17:32:31.524Z,197.92
2023-05-10T17:33:31.471Z,200.41
2023-05-10T17:34:31.479Z,199.67
2023-05-10T17:35:31.521Z,199.34
2023-05-10T17:36:31.517Z,198.79
2023-05-10T17:37:31.532Z,199.61
2023-05-10T17:38:31.561Z,197.65
2023-05-10T17:39:31.577Z,199.95
2023-05-10T17:40:31.608Z,203.91
2023-05-10T17:41:31.621Z,195.91
2023-05-10T17:42:31.624Z,197.30
2023-05-10T17:43:31.677Z,199.19
2023-05-10T17:44:31.648Z,198.03
2023-05-10T17:45:31.690Z,200.53
2023-05-10T17:46:31.694Z,197.04
2023-05-10T17:47:31.734Z,200.04
2023-05-10T17:48:31.742Z,197.09
2023-05-10T17:49:31.775Z,197.84
2023-05-10T17:50:31.790Z,198.20
2023-05-10T17:51:31.855Z,196.76
2023-05-10T17:52:33.615Z,198.53
2023-05-10T17:53:31.846Z,198.76
2023-05-10T17:54:31.868Z,195.69
2023-05-10T17:55:31.855Z,199.22
2023-05-10T17:56:31.875Z,195.89
2023-05-10T17:57:31.907Z,195.43
2023-05-10T17:58:31.904Z,196.96
2023-05-10T17:59:31.925Z,196.79
2023-05-10T18:00:31.943Z,194.12
2023-05-10T18:01:32.030Z,193.58
2023-05-10T18:02:32.005Z,196.26
2023-05-10T18:03:31.991Z,196.12
2023-05-10T18:04:32.027Z,195.55